createdAt,value
2019-03-24T00:00:36.949Z,2.17
2019-03-24T00:05:40.406Z,2.90
2019-03-24T00:10:43.874Z,2.43
2019-03-24T00:15:47.336Z,3.02
2019-03-24T00:20:50.797Z,2.70
2019-03-24T00:25:54.255Z,2.70
2019-03-24T00:30:57.718Z,2.40
2019-03-24T00:36:01.177Z,2.60
2019-03-24T00:41:04.654Z,2.20
2019-03-24T00:46:08.112Z,2.27
2019-03-24T00:51:11.571Z,2.20
2019-03-24T00:56:15.046Z,2.30
2019-03-24T01:01:19.177Z,2.20
2019-03-24T01:06:22.642Z,2.12
2019-03-24T01:11:26.099Z,2.10
2019-03-24T01:16:29.614Z,2.10
2019-03-24T01:21:33.076Z,2.15
2019-03-24T01:26:36.537Z,3.12
2019-03-24T01:31:40.000Z,2.37
2019-03-24T01:36:43.469Z,2.42
2019-03-24T01:41:46.924Z,2.20
2019-03-24T01:46:50.384Z,2.25
2019-03-24T01:51:53.844Z,2.08
2019-03-24T01:56:57.304Z,1.95
2019-03-24T02:02:00.774Z,1.87
2019-03-24T02:07:04.433Z,2.42
2019-03-24T02:12:07.892Z,2.30
2019-03-24T02:17:11.359Z,2.20
2019-03-24T02:22:14.815Z,2.30
2019-03-24T02:27:18.282Z,2.10
2019-03-24T02:32:21.742Z,2.00
2019-03-24T02:37:25.200Z,2.47
2019-03-24T02:42:28.664Z,1.92
2019-03-24T02:47:32.126Z,2.35
2019-03-24T02:52:35.589Z,2.55
2019-03-24T02:57:39.052Z,1.90
2019-03-24T03:02:42.509Z,2.33
2019-03-24T03:07:45.990Z,2.35
2019-03-24T03:12:49.454Z,2.00
2019-03-24T03:17:52.921Z,2.05
2019-03-24T03:22:56.396Z,1.90
2019-03-24T03:27:59.860Z,2.25
2019-03-24T03:33:03.397Z,1.87
2019-03-24T03:38:06.912Z,1.90
2019-03-24T03:43:10.375Z,2.05
2019-03-24T03:48:13.828Z,2.02
2019-03-24T03:53:17.298Z,2.30
2019-03-24T03:58:20.750Z,2.08
2019-03-24T04:03:24.244Z,1.90
2019-03-24T04:08:27.709Z,1.62
2019-03-24T04:13:31.172Z,1.85
2019-03-24T04:18:34.643Z,1.60
2019-03-24T04:23:38.100Z,2.15
2019-03-24T04:28:41.567Z,1.75
2019-03-24T04:33:45.033Z,2.10
2019-03-24T04:38:48.571Z,1.80
2019-03-24T04:43:52.035Z,1.52
2019-03-24T04:48:55.502Z,1.67
2019-03-24T04:53:58.960Z,1.80
2019-03-24T04:59:02.420Z,1.57
2019-03-24T05:04:05.881Z,1.92
2019-03-24T05:09:09.344Z,1.83
2019-03-24T05:14:12.805Z,1.92
2019-03-24T05:19:16.272Z,1.55
2019-03-24T05:24:19.729Z,1.93
2019-03-24T05:29:23.188Z,2.00
2019-03-24T05:34:26.654Z,1.40
2019-03-24T05:39:30.121Z,1.70
2019-03-24T05:44:33.587Z,1.87
2019-03-24T05:49:37.070Z,1.57
2019-03-24T05:54:40.538Z,1.70
2019-03-24T05:59:44.006Z,1.65
2019-03-24T06:04:47.467Z,1.72
2019-03-24T06:09:50.937Z,1.70
2019-03-24T06:14:54.399Z,1.52
2019-03-24T06:19:57.857Z,1.60
2019-03-24T06:25:01.323Z,1.60
2019-03-24T06:30:07.661Z,1.58
2019-03-24T06:35:11.250Z,1.43
2019-03-24T06:40:14.782Z,1.60
2019-03-24T06:45:27.980Z,1.70
2019-03-24T06:50:23.423Z,1.50
2019-03-24T06:55:26.895Z,2.00
2019-03-24T07:00:30.366Z,1.82
2019-03-24T07:05:33.836Z,1.45
2019-03-24T07:10:37.298Z,1.40
2019-03-24T07:15:40.762Z,1.50
2019-03-24T07:20:44.224Z,1.37
2019-03-24T07:25:47.697Z,1.42
2019-03-24T07:30:51.156Z,1.42
2019-03-24T07:35:54.628Z,1.40
2019-03-24T07:40:58.083Z,1.65
2019-03-24T07:46:01.559Z,1.55
2019-03-24T07:51:05.018Z,1.80
2019-03-24T07:56:08.480Z,1.35
2019-03-24T08:01:11.946Z,8.78
2019-03-24T08:06:15.416Z,12.63
2019-03-24T08:11:18.897Z,15.23
2019-03-24T08:16:22.360Z,13.72
2019-03-24T08:21:25.832Z,10.18
2019-03-24T08:26:29.306Z,10.80
2019-03-24T08:31:32.776Z,10.15
2019-03-24T08:36:36.248Z,9.58
2019-03-24T08:41:39.716Z,9.43
2019-03-24T08:46:45.122Z,10.18
2019-03-24T08:51:48.382Z,20.25
2019-03-24T08:56:51.854Z,18.90
2019-03-24T09:01:55.322Z,17.60
2019-03-24T09:06:58.795Z,16.35
2019-03-24T09:12:02.273Z,14.73
2019-03-24T09:17:05.740Z,13.05
2019-03-24T09:22:09.216Z,13.10
2019-03-24T09:27:12.693Z,12.43
2019-03-24T09:32:16.157Z,11.93
2019-03-24T09:37:19.627Z,11.30
2019-03-24T09:42:23.102Z,11.95
2019-03-24T09:47:26.567Z,10.63
2019-03-24T09:52:30.047Z,11.12
2019-03-24T09:57:33.514Z,11.48
2019-03-24T10:02:36.988Z,12.25
2019-03-24T10:07:40.458Z,13.13
2019-03-24T10:12:43.927Z,13.20
2019-03-24T10:17:47.395Z,10.28
2019-03-24T10:22:50.864Z,11.68
2019-03-24T10:27:54.334Z,10.58
2019-03-24T10:32:57.808Z,11.37
2019-03-24T10:38:01.288Z,10.53
2019-03-24T10:43:04.825Z,9.78
2019-03-24T10:48:08.290Z,10.58
2019-03-24T10:53:11.758Z,8.73
2019-03-24T10:58:15.229Z,8.30
2019-03-24T11:03:18.693Z,7.53
2019-03-24T11:08:22.163Z,7.62
2019-03-24T11:13:25.639Z,8.08
2019-03-24T11:18:29.102Z,8.63
2019-03-24T11:23:32.569Z,7.33
2019-03-24T11:28:36.035Z,7.10
2019-03-24T11:33:39.508Z,14.38
2019-03-24T11:38:42.995Z,12.40
2019-03-24T11:43:46.466Z,12.20
2019-03-24T11:48:49.933Z,11.95
2019-03-24T11:53:53.418Z,16.27
2019-03-24T11:58:56.979Z,18.92
2019-03-24T12:04:00.548Z,17.62
2019-03-24T12:09:05.285Z,15.68
2019-03-24T12:14:08.756Z,14.43
2019-03-24T12:19:12.228Z,12.68
2019-03-24T12:24:17.336Z,12.05
2019-03-24T12:29:20.807Z,13.15
2019-03-24T12:34:24.283Z,10.65
2019-03-24T12:39:27.740Z,9.08
2019-03-24T12:44:31.212Z,8.60
2019-03-24T12:49:34.738Z,8.78
2019-03-24T12:54:38.199Z,8.75
2019-03-24T12:59:41.668Z,7.80
2019-03-24T13:04:45.199Z,8.90
2019-03-24T13:09:48.664Z,8.18
2019-03-24T13:14:52.582Z,8.13
2019-03-24T13:19:56.065Z,6.87
2019-03-24T13:24:59.529Z,8.47
2019-03-24T13:30:06.124Z,7.25
2019-03-24T13:35:09.584Z,7.65
2019-03-24T13:40:13.043Z,6.30
2019-03-24T13:45:16.505Z,6.07
2019-03-24T13:50:30.698Z,7.60
2019-03-24T13:55:25.164Z,6.97
2019-03-24T14:00:28.697Z,7.03
2019-03-24T14:05:32.160Z,6.87
2019-03-24T14:10:35.630Z,6.12
2019-03-24T14:15:39.101Z,5.95
2019-03-24T14:20:43.875Z,6.83
2019-03-24T14:25:47.582Z,5.87
2019-03-24T14:30:51.386Z,8.65
2019-03-24T14:35:54.849Z,7.93
2019-03-24T14:40:58.316Z,8.45
2019-03-24T14:46:01.779Z,8.00
2019-03-24T14:51:05.242Z,7.47
2019-03-24T14:56:08.710Z,6.50
2019-03-24T15:01:12.181Z,6.73
2019-03-24T15:06:15.640Z,6.40
2019-03-24T15:11:19.131Z,6.47
2019-03-24T15:16:22.598Z,6.37
2019-03-24T15:21:26.072Z,6.22
2019-03-24T15:26:29.523Z,5.55
2019-03-24T15:31:32.990Z,5.97
2019-03-24T15:36:36.453Z,6.17
2019-03-24T15:41:39.920Z,5.70
2019-03-24T15:46:43.382Z,5.87
2019-03-24T15:51:46.848Z,5.57
2019-03-24T15:56:50.318Z,5.65
2019-03-24T16:01:53.784Z,5.12
2019-03-24T16:06:57.232Z,4.92
2019-03-24T16:12:00.864Z,5.05
2019-03-24T16:17:04.353Z,5.67
2019-03-24T16:22:07.848Z,5.67
2019-03-24T16:27:11.301Z,4.80
2019-03-24T16:32:14.781Z,4.20
2019-03-24T16:37:18.260Z,4.78
2019-03-24T16:42:21.742Z,5.10
2019-03-24T16:47:25.217Z,4.42
2019-03-24T16:52:28.691Z,4.47
2019-03-24T16:57:32.172Z,4.15
2019-03-24T17:02:35.661Z,3.92
2019-03-24T17:07:39.313Z,4.00
2019-03-24T17:12:42.801Z,6.95
2019-03-24T17:17:46.280Z,9.73
2019-03-24T17:22:49.762Z,6.12
2019-03-24T17:27:53.254Z,5.70
2019-03-24T17:32:56.743Z,5.97
2019-03-24T17:38:00.221Z,5.28
2019-03-24T17:43:03.778Z,5.20
2019-03-24T17:48:07.443Z,5.12
2019-03-24T17:53:10.924Z,4.37
2019-03-24T17:58:14.402Z,4.10
2019-03-24T18:03:17.934Z,3.92
2019-03-24T18:08:21.395Z,4.03
2019-03-24T18:13:24.861Z,3.77
2019-03-24T18:18:28.325Z,3.52
2019-03-24T18:23:31.783Z,3.72
2019-03-24T18:28:35.252Z,3.60
2019-03-24T18:33:38.719Z,3.35
2019-03-24T18:38:42.197Z,3.53
2019-03-24T18:43:45.656Z,3.15
2019-03-24T18:48:49.121Z,3.60
2019-03-24T18:53:52.578Z,3.27
2019-03-24T18:58:56.036Z,3.65
2019-03-24T19:03:59.495Z,3.40
2019-03-24T19:09:02.965Z,3.33
2019-03-24T19:14:06.417Z,3.10
2019-03-24T19:19:09.881Z,3.15
2019-03-24T19:24:13.340Z,2.95
2019-03-24T19:29:16.829Z,2.80
2019-03-24T19:34:20.293Z,3.17
2019-03-24T19:39:24.019Z,3.00
2019-03-24T19:44:27.489Z,3.10
2019-03-24T19:49:30.954Z,3.62
2019-03-24T19:54:34.422Z,3.55
2019-03-24T19:59:37.884Z,2.98
2019-03-24T20:04:41.347Z,3.00
2019-03-24T20:09:44.811Z,3.45
2019-03-24T20:14:48.271Z,2.27
2019-03-24T20:19:51.732Z,3.15
2019-03-24T20:24:55.193Z,3.65
2019-03-24T20:29:58.647Z,2.90
2019-03-24T20:35:02.111Z,3.33
2019-03-24T20:40:07.272Z,3.24
2019-03-24T20:45:11.571Z,2.98
2019-03-24T20:50:15.168Z,3.73
2019-03-24T20:55:18.628Z,3.12
2019-03-24T21:00:35.262Z,3.00
2019-03-24T21:05:38.753Z,2.92
2019-03-24T21:10:42.190Z,3.70
2019-03-24T21:15:45.647Z,3.20
2019-03-24T21:20:49.114Z,3.15
2019-03-24T21:25:52.581Z,3.08
2019-03-24T21:30:56.050Z,3.03
2019-03-24T21:35:59.516Z,2.93
2019-03-24T21:41:03.449Z,2.83
2019-03-24T21:46:06.918Z,3.07
2019-03-24T21:51:10.373Z,3.22
2019-03-24T21:56:14.274Z,3.00
2019-03-24T22:01:17.870Z,2.67
2019-03-24T22:06:21.328Z,2.63
2019-03-24T22:11:24.788Z,2.80
2019-03-24T22:16:28.243Z,2.70
2019-03-24T22:21:31.705Z,2.47
2019-03-24T22:26:35.165Z,2.52
2019-03-24T22:31:38.788Z,2.40
2019-03-24T22:36:42.255Z,2.87
2019-03-24T22:41:45.712Z,2.83
2019-03-24T22:46:49.175Z,2.87
2019-03-24T22:51:54.835Z,2.67
2019-03-24T22:56:57.947Z,2.52
2019-03-24T23:02:01.607Z,2.55
2019-03-24T23:07:05.308Z,2.60
2019-03-24T23:12:08.768Z,2.25
2019-03-24T23:17:12.227Z,2.15
2019-03-24T23:22:15.687Z,2.42
2019-03-24T23:27:19.418Z,2.47
2019-03-24T23:32:22.881Z,1.85
2019-03-24T23:37:26.346Z,2.17
2019-03-24T23:42:29.799Z,2.10
2019-03-24T23:47:33.261Z,2.15
2019-03-24T23:52:36.721Z,2.20
2019-03-24T23:57:40.181Z,1.72
